Time;durP1;ratioP1;P1;durP2;ratioP2;P2;SDS_P1;SDS_P2;PMS_P1;PMS_P2;Temp;Humidity;BMP_temperature;BMP_pressure;BME280_temperature;BME280_humidity;BME280_pressure;Samples;Min_cycle;Max_cycle;Signal;HPM_P1;HPM_P2
2023/08/23 00:02:14;;;;;;;39.45;19.20;;;;;;;31.59;nan;97189.84;4855378;29;20437;-69
2023/08/23 00:04:43;;;;;;;38.88;18.95;;;;;;;31.56;nan;97185.88;4854921;29;20057;-68
2023/08/23 00:07:13;;;;;;;40.05;18.77;;;;;;;31.57;nan;97181.19;4854715;29;20049;-68
2023/08/23 00:09:43;;;;;;;44.03;19.15;;;;;;;31.56;nan;97185.09;4852327;29;20049;-68
2023/08/23 00:12:14;;;;;;;39.83;16.42;;;;;;;31.55;nan;97191.75;4854431;29;20057;-68
2023/08/23 00:14:44;;;;;;;32.70;14.77;;;;;;;31.59;nan;97204.34;4858971;29;20041;-68
2023/08/23 00:17:14;;;;;;;31.60;14.48;;;;;;;31.60;nan;97205.13;4854664;29;20060;-69
2023/08/23 00:19:44;;;;;;;26.67;12.70;;;;;;;31.59;nan;97201.59;4855245;29;20053;-68
2023/08/23 00:22:14;;;;;;;26.90;12.65;;;;;;;31.63;nan;97193.44;4854435;29;20077;-68
2023/08/23 00:24:43;;;;;;;23.55;11.02;;;;;;;31.67;nan;97196.22;4838607;29;20142;-69
2023/08/23 00:27:13;;;;;;;21.38;11.95;;;;;;;31.68;nan;97198.59;4854515;29;20046;-69
2023/08/23 00:29:42;;;;;;;29.00;12.13;;;;;;;31.69;nan;97191.94;4838941;29;20114;-69
2023/08/23 00:32:12;;;;;;;29.48;12.05;;;;;;;31.72;nan;97185.75;4852905;29;20102;-69
2023/08/23 00:34:41;;;;;;;24.48;11.30;;;;;;;31.75;nan;97187.75;4854180;29;20734;-69
2023/08/23 00:37:10;;;;;;;31.65;10.93;;;;;;;31.77;nan;97187.41;4857652;29;20073;-69
2023/08/23 00:39:39;;;;;;;32.47;11.60;;;;;;;31.81;nan;97185.50;4842837;29;20132;-69
2023/08/23 00:42:10;;;;;;;33.10;11.20;;;;;;;31.79;nan;97179.59;4837588;29;20062;-69
2023/08/23 00:44:41;;;;;;;40.33;11.52;;;;;;;31.78;nan;97187.00;4823944;29;20510;-69
2023/08/23 00:47:11;;;;;;;38.85;12.15;;;;;;;31.80;nan;97183.91;4854214;29;20058;-69
2023/08/23 00:49:40;;;;;;;25.67;10.25;;;;;;;31.81;nan;97185.50;4864460;29;20152;-69
2023/08/23 00:52:10;;;;;;;40.05;11.60;;;;;;;31.82;nan;97179.63;4839601;29;20053;-69
2023/08/23 00:54:40;;;;;;;29.23;11.43;;;;;;;31.86;nan;97188.72;4853849;29;20144;-69
2023/08/23 00:57:10;;;;;;;29.63;12.38;;;;;;;31.89;nan;97193.47;4853796;29;20440;-69
2023/08/23 00:59:39;;;;;;;30.92;11.52;;;;;;;31.93;nan;97191.56;4854403;29;20474;-69
2023/08/23 01:02:11;;;;;;;35.80;12.05;;;;;;;31.93;nan;97199.78;4837296;29;20491;-68
2023/08/23 01:04:42;;;;;;;33.25;10.68;;;;;;;31.90;nan;97203.25;4853859;29;20053;-69
2023/08/23 01:07:19;;;;;;;33.03;11.88;;;;;;;31.84;nan;97210.19;4854352;29;20132;-70
2023/08/23 01:10:05;;;;;;;37.45;11.77;;;;;;;31.89;nan;97217.31;4822519;29;20049;-69
2023/08/23 01:12:34;;;;;;;22.17;10.25;;;;;;;31.91;nan;97218.50;4823052;29;20156;-69
2023/08/23 01:15:08;;;;;;;32.90;11.88;;;;;;;31.91;nan;97221.25;4857687;29;20080;-70
2023/08/23 01:17:43;;;;;;;22.75;10.32;;;;;;;31.98;nan;97228.81;4887543;29;20608;-69
2023/08/23 01:20:14;;;;;;;31.58;12.95;;;;;;;31.92;nan;97224.78;4845754;29;20049;-69
2023/08/23 01:23:10;;;;;;;28.17;13.18;;;;;;;31.88;nan;97234.88;4852503;29;20493;-68
2023/08/23 01:25:52;;;;;;;26.58;13.85;;;;;;;31.83;nan;97233.25;4837866;29;20045;-69
2023/08/23 01:28:23;;;;;;;32.22;15.48;;;;;;;31.79;nan;97232.41;4852330;29;20045;-69
2023/08/23 01:30:54;;;;;;;36.10;16.08;;;;;;;31.86;nan;97227.06;4838763;29;20141;-69
2023/08/23 01:33:47;;;;;;;30.98;15.43;;;;;;;31.86;nan;97232.53;4852665;29;20579;-69
2023/08/23 01:36:30;;;;;;;29.88;13.57;;;;;;;31.87;nan;97228.63;4851848;29;20045;-69
2023/08/23 01:39:01;;;;;;;30.40;13.15;;;;;;;31.91;nan;97240.41;4854343;29;20500;-70
2023/08/23 01:41:31;;;;;;;27.48;13.20;;;;;;;31.94;nan;97244.38;4834683;29;20153;-69
2023/08/23 01:44:00;;;;;;;31.95;13.38;;;;;;;32.00;nan;97248.38;4852419;29;20110;-69
2023/08/23 01:46:30;;;;;;;28.42;12.73;;;;;;;31.99;nan;97247.63;4852931;29;20160;-69
2023/08/23 01:49:01;;;;;;;28.45;11.98;;;;;;;32.00;nan;97251.91;4837136;29;20400;-69
2023/08/23 01:51:30;;;;;;;32.60;13.30;;;;;;;31.99;nan;97255.84;4849586;29;20053;-69
2023/08/23 01:54:02;;;;;;;25.75;11.30;;;;;;;32.07;nan;97264.94;4852965;29;20394;-70
2023/08/23 01:56:33;;;;;;;26.45;10.32;;;;;;;32.11;nan;97265.81;4834677;29;20060;-70
2023/08/23 01:59:03;;;;;;;30.65;10.80;;;;;;;32.12;nan;97261.13;4839091;29;20763;-70
2023/08/23 02:01:32;;;;;;;25.70;9.57;;;;;;;32.15;nan;97261.19;4852747;29;20053;-69
2023/08/23 02:04:02;;;;;;;27.40;11.00;;;;;;;32.16;nan;97257.28;4852803;29;20064;-71
2023/08/23 02:06:31;;;;;;;24.50;10.23;;;;;;;32.16;nan;97264.72;4851678;29;20382;-69
2023/08/23 02:09:00;;;;;;;23.08;9.07;;;;;;;32.18;nan;97270.59;4840660;29;20053;-69
2023/08/23 02:11:29;;;;;;;24.90;8.65;;;;;;;32.18;nan;97265.13;4852432;29;20149;-69
2023/08/23 02:13:59;;;;;;;24.95;8.48;;;;;;;32.17;nan;97266.31;4851976;29;20053;-69
2023/08/23 02:16:30;;;;;;;26.35;8.23;;;;;;;32.15;nan;97263.13;4864524;29;20054;-69
2023/08/23 02:19:00;;;;;;;24.60;9.77;;;;;;;32.20;nan;97262.81;4839314;29;20053;-69
2023/08/23 02:21:32;;;;;;;31.20;8.65;;;;;;;32.19;nan;97274.94;4845463;29;20704;-70
2023/08/23 02:24:01;;;;;;;30.20;8.88;;;;;;;32.21;nan;97272.63;4852969;29;20060;-69
2023/08/23 02:26:31;;;;;;;30.05;7.43;;;;;;;32.25;nan;97271.53;4836535;29;20060;-69
2023/08/23 02:29:00;;;;;;;30.02;8.38;;;;;;;32.21;nan;97275.38;4851620;29;20046;-69
2023/08/23 02:31:30;;;;;;;27.08;6.55;;;;;;;32.24;nan;97277.38;4852423;29;20049;-69
2023/08/23 02:33:59;;;;;;;27.55;8.85;;;;;;;32.34;nan;97284.97;4836180;29;20049;-69
2023/08/23 02:36:29;;;;;;;19.63;7.28;;;;;;;32.35;nan;97286.53;4852327;29;20054;-69
2023/08/23 02:38:58;;;;;;;27.23;7.53;;;;;;;32.26;nan;97289.56;4836692;29;20061;-69
2023/08/23 02:41:27;;;;;;;27.60;7.68;;;;;;;32.30;nan;97284.13;4852320;29;20090;-69
2023/08/23 02:43:58;;;;;;;27.67;6.68;;;;;;;32.32;nan;97288.06;4836195;29;20065;-70
2023/08/23 02:46:28;;;;;;;30.10;7.10;;;;;;;32.23;nan;97289.47;4865687;29;20058;-69
2023/08/23 02:48:57;;;;;;;26.25;7.50;;;;;;;32.30;nan;97290.41;4852954;29;20069;-69
2023/08/23 02:51:26;;;;;;;23.95;6.00;;;;;;;32.25;nan;97287.16;4852483;29;20168;-69
2023/08/23 02:53:56;;;;;;;21.15;6.45;;;;;;;32.30;nan;97295.88;4836333;29;20065;-69
2023/08/23 02:56:25;;;;;;;24.83;6.72;;;;;;;32.28;nan;97297.38;4852262;29;21566;-69
2023/08/23 02:58:54;;;;;;;25.92;7.20;;;;;;;32.15;nan;97293.25;4838338;29;20443;-69
2023/08/23 03:01:23;;;;;;;22.48;6.03;;;;;;;32.20;nan;97299.22;4839586;29;20858;-69
2023/08/23 03:03:53;;;;;;;22.52;6.07;;;;;;;32.13;nan;97301.88;4849546;29;20053;-69
2023/08/23 03:06:23;;;;;;;22.52;5.95;;;;;;;32.19;nan;97314.09;4855062;29;20050;-70
2023/08/23 03:08:53;;;;;;;20.30;6.68;;;;;;;32.27;nan;97309.50;4856048;29;20049;-69
2023/08/23 03:11:22;;;;;;;19.02;6.55;;;;;;;32.21;nan;97302.78;4839297;29;20059;-69
2023/08/23 03:13:51;;;;;;;17.90;5.68;;;;;;;32.32;nan;97309.19;4853027;29;20057;-69
2023/08/23 03:16:20;;;;;;;18.00;5.97;;;;;;;32.34;nan;97307.69;4855311;29;20073;-69
2023/08/23 03:18:50;;;;;;;22.88;7.20;;;;;;;32.34;nan;97317.84;4840645;29;20057;-70
2023/08/23 03:24:58;;;;;;;18.17;5.90;;;;;;;32.61;nan;97305.72;4851385;29;20125;-69
2023/08/23 03:27:27;;;;;;;26.55;6.60;;;;;;;32.55;nan;97301.72;4838095;29;20571;-70
2023/08/23 03:29:57;;;;;;;23.40;6.80;;;;;;;32.69;nan;97301.16;4838297;29;20055;-69
2023/08/23 03:32:26;;;;;;;36.97;7.00;;;;;;;32.74;nan;97300.84;4845798;29;20213;-69
2023/08/23 03:34:55;;;;;;;21.38;7.03;;;;;;;32.86;nan;97308.81;4827725;29;20573;-69
2023/08/23 03:37:24;;;;;;;30.85;7.40;;;;;;;32.97;nan;97307.03;4858004;29;20120;-69
2023/08/23 03:39:52;;;;;;;23.13;5.93;;;;;;;32.95;nan;97306.59;4839769;29;20080;-69
2023/08/23 03:42:22;;;;;;;23.65;6.90;;;;;;;33.05;nan;97319.66;4839058;29;20057;-69
2023/08/23 03:44:51;;;;;;;33.90;8.27;;;;;;;33.05;nan;97321.59;4824398;29;20046;-69
2023/08/23 03:47:20;;;;;;;22.88;6.50;;;;;;;33.21;nan;97314.78;4855173;29;20045;-69
2023/08/23 03:49:49;;;;;;;32.38;6.90;;;;;;;33.24;nan;97313.22;4855673;29;20533;-69
2023/08/23 03:52:17;;;;;;;23.23;6.05;;;;;;;33.24;nan;97307.75;4838817;29;20069;-69
2023/08/23 03:54:46;;;;;;;29.02;6.53;;;;;;;33.20;nan;97304.16;4844715;29;20050;-69
2023/08/23 03:57:15;;;;;;;21.50;6.68;;;;;;;33.32;nan;97301.97;4853849;29;20667;-69
2023/08/23 03:59:43;;;;;;;26.92;7.68;;;;;;;33.31;nan;97311.38;4839405;29;20050;-69
2023/08/23 04:02:13;;;;;;;31.48;8.20;;;;;;;33.26;nan;97308.97;4854815;29;20050;-70
2023/08/23 04:04:41;;;;;;;30.15;8.13;;;;;;;33.30;nan;97317.22;4854907;29;20732;-69
2023/08/23 04:07:14;;;;;;;21.45;7.00;;;;;;;33.28;nan;97322.31;4853128;29;20506;-69
2023/08/23 04:09:43;;;;;;;27.08;6.53;;;;;;;33.30;nan;97319.97;4866771;29;20467;-70
2023/08/23 04:12:12;;;;;;;24.20;6.50;;;;;;;33.18;nan;97328.47;4854424;29;20077;-69
2023/08/23 04:14:41;;;;;;;25.33;6.88;;;;;;;33.09;nan;97328.72;4821223;29;20394;-69
2023/08/23 04:17:10;;;;;;;25.23;7.15;;;;;;;33.16;nan;97330.78;4851806;29;20053;-69
2023/08/23 04:19:38;;;;;;;27.65;7.57;;;;;;;33.22;nan;97332.84;4840953;29;20523;-69
2023/08/23 04:22:07;;;;;;;29.83;6.85;;;;;;;33.26;nan;97338.34;4859362;29;20649;-69
2023/08/23 04:24:36;;;;;;;28.00;7.10;;;;;;;33.19;nan;97332.81;4823308;29;20053;-70
2023/08/23 04:27:05;;;;;;;28.85;6.43;;;;;;;33.24;nan;97324.22;4852629;29;20057;-70
2023/08/23 04:29:34;;;;;;;34.50;6.55;;;;;;;33.40;nan;97324.81;4869157;29;20060;-69
2023/08/23 04:32:09;;;;;;;21.63;5.90;;;;;;;33.61;nan;97329.72;4839627;29;20156;-70
2023/08/23 04:34:38;;;;;;;27.50;5.55;;;;;;;33.62;nan;97332.09;4840817;29;20726;-69
2023/08/23 04:37:08;;;;;;;18.13;5.97;;;;;;;33.70;nan;97331.03;4837294;29;20113;-69
2023/08/23 04:39:38;;;;;;;25.70;5.88;;;;;;;33.71;nan;97327.13;4823441;29;20160;-70
2023/08/23 04:42:07;;;;;;;23.17;5.88;;;;;;;33.47;nan;97326.81;4837152;29;20144;-69
2023/08/23 04:44:36;;;;;;;29.23;6.75;;;;;;;33.61;nan;97322.28;4838270;29;20145;-69
2023/08/23 04:47:06;;;;;;;24.23;6.38;;;;;;;33.67;nan;97329.06;4855747;29;20053;-69
2023/08/23 04:49:36;;;;;;;26.25;8.10;;;;;;;33.83;nan;97324.09;4849343;29;20057;-69
2023/08/23 04:52:05;;;;;;;30.88;7.20;;;;;;;33.91;nan;97324.16;4847539;29;20053;-69
2023/08/23 04:54:34;;;;;;;21.92;6.30;;;;;;;33.77;nan;97324.81;4837417;29;20077;-70
2023/08/23 04:57:04;;;;;;;33.15;6.95;;;;;;;33.90;nan;97325.34;4867541;29;20121;-70
2023/08/23 04:59:33;;;;;;;25.77;7.03;;;;;;;34.12;nan;97327.88;4839500;29;20068;-70
2023/08/23 05:02:03;;;;;;;28.20;7.57;;;;;;;34.23;nan;97326.03;4853283;29;20056;-70
2023/08/23 05:04:32;;;;;;;18.70;5.85;;;;;;;34.33;nan;97330.06;4838237;29;20046;-70
2023/08/23 05:07:02;;;;;;;25.48;6.70;;;;;;;34.19;nan;97317.00;4849202;29;20059;-70
2023/08/23 05:09:33;;;;;;;21.30;6.63;;;;;;;34.26;nan;97317.03;4832044;29;20054;-70
2023/08/23 05:12:02;;;;;;;19.65;5.32;;;;;;;34.32;nan;97325.72;4833766;29;20129;-72
2023/08/23 05:14:33;;;;;;;20.40;6.10;;;;;;;34.36;nan;97321.03;4818551;29;20117;-71
2023/08/23 05:17:03;;;;;;;25.65;5.18;;;;;;;34.63;nan;97319.66;4851594;29;20053;-70
2023/08/23 05:19:33;;;;;;;18.40;6.63;;;;;;;34.48;nan;97317.97;4834434;29;20057;-70
2023/08/23 05:22:04;;;;;;;24.40;6.28;;;;;;;34.58;nan;97309.00;4849451;29;20696;-70
2023/08/23 05:24:34;;;;;;;23.52;6.75;;;;;;;34.56;nan;97311.38;4851041;29;20052;-70
2023/08/23 05:27:04;;;;;;;25.67;6.13;;;;;;;34.58;nan;97310.97;4850726;29;20052;-72
2023/08/23 05:29:33;;;;;;;20.65;6.10;;;;;;;34.61;nan;97316.47;4852770;29;20061;-73
2023/08/23 05:32:03;;;;;;;20.27;6.57;;;;;;;34.60;nan;97319.63;4864810;29;20100;-72
2023/08/23 05:34:32;;;;;;;28.05;6.30;;;;;;;34.85;nan;97319.78;4851648;29;20053;-73
2023/08/23 05:37:01;;;;;;;17.48;5.97;;;;;;;34.94;nan;97329.28;4835516;29;20078;-71
2023/08/23 05:39:32;;;;;;;16.05;5.43;;;;;;;35.43;nan;97336.97;4867362;29;20049;-72
2023/08/23 05:42:01;;;;;;;24.38;5.80;;;;;;;35.35;nan;97337.34;4849131;29;20072;-72
2023/08/23 05:44:30;;;;;;;16.08;4.82;;;;;;;35.19;nan;97334.91;4837284;29;20049;-72
2023/08/23 05:47:00;;;;;;;18.10;5.13;;;;;;;35.37;nan;97330.28;4852433;29;20049;-71
2023/08/23 05:49:29;;;;;;;25.13;5.97;;;;;;;35.38;nan;97336.56;4852719;29;20422;-73
2023/08/23 05:51:59;;;;;;;14.57;4.95;;;;;;;35.23;nan;97341.22;4821434;29;20145;-73
2023/08/23 05:54:29;;;;;;;31.73;5.72;;;;;;;35.57;nan;97339.00;4832941;29;20140;-71
2023/08/23 05:56:59;;;;;;;24.80;5.68;;;;;;;35.74;nan;97335.53;4850390;29;20057;-72
2023/08/23 05:59:29;;;;;;;33.60;7.35;;;;;;;35.64;nan;97344.53;4853685;29;20113;-72
2023/08/23 06:01:58;;;;;;;25.15;5.60;;;;;;;35.84;nan;97337.50;4851372;29;20084;-72
2023/08/23 06:04:28;;;;;;;24.10;5.13;;;;;;;36.08;nan;97340.66;4839458;29;20057;-74
2023/08/23 06:06:58;;;;;;;19.35;6.47;;;;;;;36.07;nan;97353.66;4838510;29;20061;-72
2023/08/23 06:09:28;;;;;;;16.52;5.07;;;;;;;36.08;nan;97346.19;4842858;29;20060;-72
2023/08/23 06:11:57;;;;;;;17.92;4.72;;;;;;;36.34;nan;97338.34;4833457;29;20061;-74
2023/08/23 06:14:26;;;;;;;23.88;5.05;;;;;;;36.20;nan;97349.38;4848020;29;20079;-74
2023/08/23 06:16:56;;;;;;;20.08;5.93;;;;;;;35.87;nan;97335.94;4846098;29;20125;-75
2023/08/23 06:19:29;;;;;;;22.98;5.97;;;;;;;36.00;nan;97342.63;4832066;29;20389;-73
2023/08/23 06:21:58;;;;;;;21.00;6.38;;;;;;;36.40;nan;97342.28;4857999;29;20369;-72
2023/08/23 06:24:28;;;;;;;21.98;5.45;;;;;;;36.41;nan;97335.59;4834199;29;20052;-74
2023/08/23 06:26:58;;;;;;;20.00;6.97;;;;;;;36.44;nan;97339.50;4858080;29;20446;-75
2023/08/23 06:29:28;;;;;;;19.83;5.30;;;;;;;36.59;nan;97335.59;4846152;29;20049;-72
2023/08/23 06:31:57;;;;;;;22.33;6.90;;;;;;;36.55;nan;97334.00;4846378;29;20205;-73
2023/08/23 06:34:27;;;;;;;25.67;6.63;;;;;;;36.62;nan;97342.28;4851838;29;20057;-75
2023/08/23 06:36:56;;;;;;;16.23;5.90;;;;;;;36.54;nan;97335.16;4848523;29;20065;-74
2023/08/23 06:39:25;;;;;;;24.75;5.95;;;;;;;36.52;nan;97329.25;4848068;29;20049;-75
2023/08/23 06:42:01;;;;;;;18.25;5.93;;;;;;;36.33;nan;97333.22;4848190;29;20218;-77
2023/08/23 06:44:32;;;;;;;22.92;6.47;;;;;;;36.24;nan;97344.66;4862708;29;20453;-74
2023/08/23 06:47:01;;;;;;;17.45;6.93;;;;;;;36.38;nan;97346.63;4848428;29;20071;-75
2023/08/23 06:49:31;;;;;;;23.02;6.60;;;;;;;36.41;nan;97345.81;4824685;29;20064;-75
2023/08/23 06:52:00;;;;;;;26.42;7.10;;;;;;;36.25;nan;97348.97;4854515;29;20419;-74
2023/08/23 06:54:29;;;;;;;21.63;5.80;;;;;;;36.27;nan;97341.09;4828957;29;20750;-76
2023/08/23 06:56:59;;;;;;;20.40;6.60;;;;;;;36.25;nan;97339.94;4829429;29;20057;-75
2023/08/23 06:59:28;;;;;;;19.83;5.57;;;;;;;36.02;nan;97337.53;4826136;29;20403;-75
2023/08/23 07:01:58;;;;;;;28.52;6.53;;;;;;;35.66;nan;97322.91;4826697;29;20050;-74
2023/08/23 07:04:28;;;;;;;20.33;6.72;;;;;;;35.78;nan;97328.03;4829752;29;20780;-72
2023/08/23 07:06:57;;;;;;;23.08;6.05;;;;;;;35.84;nan;97325.69;4847660;29;20053;-74
2023/08/23 07:09:26;;;;;;;23.20;5.60;;;;;;;35.76;nan;97330.38;4827839;29;20646;-72
2023/08/23 07:11:55;;;;;;;22.60;6.40;;;;;;;35.85;nan;97322.53;4828739;29;20054;-72
2023/08/23 07:14:25;;;;;;;20.10;6.38;;;;;;;35.86;nan;97326.06;4856712;29;20054;-72
2023/08/23 07:16:54;;;;;;;26.38;6.75;;;;;;;35.99;nan;97319.00;4831553;29;20145;-70
2023/08/23 07:19:23;;;;;;;23.58;7.57;;;;;;;36.15;nan;97326.94;4829249;29;20110;-74
2023/08/23 07:21:53;;;;;;;21.92;6.22;;;;;;;35.88;nan;97320.97;4827276;29;20049;-74
2023/08/23 07:24:22;;;;;;;25.90;7.18;;;;;;;35.79;nan;97315.84;4857328;29;20053;-76
2023/08/23 07:26:51;;;;;;;24.88;7.50;;;;;;;35.95;nan;97323.72;4827398;29;20061;-77
2023/08/23 07:29:21;;;;;;;20.17;7.13;;;;;;;35.83;nan;97315.84;4842497;29;20149;-77
2023/08/23 07:31:50;;;;;;;26.52;6.85;;;;;;;35.87;nan;97322.16;4825970;29;20081;-75
2023/08/23 07:34:19;;;;;;;20.63;7.03;;;;;;;35.79;nan;97312.31;4823683;29;20685;-74
2023/08/23 07:36:49;;;;;;;24.58;7.40;;;;;;;35.84;nan;97317.44;4827832;29;20050;-71
2023/08/23 07:39:18;;;;;;;16.35;5.65;;;;;;;36.05;nan;97320.19;4826494;29;20052;-73
2023/08/23 07:41:48;;;;;;;24.75;7.15;;;;;;;35.87;nan;97319.38;4826075;29;20068;-70
2023/08/23 07:44:17;;;;;;;25.85;6.95;;;;;;;35.95;nan;97315.47;4828346;29;20064;-68
2023/08/23 07:46:47;;;;;;;23.88;6.63;;;;;;;35.88;nan;97307.19;4833456;29;20750;-70
2023/08/23 07:49:16;;;;;;;21.70;7.35;;;;;;;36.01;nan;97305.63;4845662;29;20670;-68
2023/08/23 07:51:46;;;;;;;23.75;8.07;;;;;;;36.01;nan;97305.63;4848787;29;20534;-74
2023/08/23 07:54:16;;;;;;;22.95;7.15;;;;;;;35.91;nan;97295.38;4833727;29;20053;-71
2023/08/23 07:56:45;;;;;;;21.65;6.00;;;;;;;36.01;nan;97289.09;4849429;29;20156;-74
2023/08/23 07:59:14;;;;;;;17.67;6.45;;;;;;;35.97;nan;97294.59;4832396;29;20068;-74
2023/08/23 08:01:43;;;;;;;29.55;7.05;;;;;;;35.81;nan;97283.16;4851259;29;20053;-75
2023/08/23 08:04:12;;;;;;;27.25;6.13;;;;;;;35.79;nan;97282.00;4851844;29;20062;-74
2023/08/23 08:06:42;;;;;;;25.63;7.32;;;;;;;35.92;nan;97272.94;4852159;29;20734;-72
2023/08/23 08:09:11;;;;;;;27.05;8.00;;;;;;;35.97;nan;97277.28;4840756;29;20048;-73
2023/08/23 08:11:41;;;;;;;24.55;6.65;;;;;;;36.00;nan;97269.00;4836796;29;20058;-74
2023/08/23 08:14:10;;;;;;;16.63;6.50;;;;;;;35.79;nan;97273.72;4854400;29;20053;-72
2023/08/23 08:16:39;;;;;;;26.77;6.65;;;;;;;35.94;nan;97269.78;4847959;29;20049;-72
2023/08/23 08:19:09;;;;;;;26.70;7.45;;;;;;;35.86;nan;97273.72;4835251;29;20800;-74
2023/08/23 08:21:39;;;;;;;30.33;6.95;;;;;;;35.61;nan;97268.16;4830923;29;20064;-75
2023/08/23 08:24:09;;;;;;;25.67;7.13;;;;;;;35.64;nan;97266.59;4860618;29;20110;-73
2023/08/23 08:26:38;;;;;;;23.33;6.45;;;;;;;35.52;nan;97267.75;4853320;29;20080;-74
2023/08/23 08:29:07;;;;;;;19.60;8.23;;;;;;;35.55;nan;97262.25;4851369;29;20057;-75
2023/08/23 08:31:39;;;;;;;23.90;6.60;;;;;;;35.56;nan;97265.78;4833965;29;20053;-75
2023/08/23 08:34:09;;;;;;;21.23;5.72;;;;;;;35.66;nan;97265.06;4848594;29;20053;-72
2023/08/23 08:36:40;;;;;;;20.42;7.97;;;;;;;35.47;nan;97257.13;4832939;29;20054;-76
2023/08/23 08:39:10;;;;;;;19.88;6.88;;;;;;;35.48;nan;97264.22;4863690;29;20609;-75
2023/08/23 08:41:41;;;;;;;20.83;6.53;;;;;;;35.58;nan;97255.94;4853181;29;20053;-70
2023/08/23 08:44:12;;;;;;;20.40;6.15;;;;;;;35.47;nan;97259.88;4845946;29;20045;-75
2023/08/23 08:46:42;;;;;;;21.17;5.50;;;;;;;35.44;nan;97260.66;4854324;29;20061;-72
2023/08/23 08:49:11;;;;;;;24.25;6.18;;;;;;;35.37;nan;97258.66;4856777;29;20148;-72
2023/08/23 08:51:44;;;;;;;16.88;6.80;;;;;;;35.48;nan;97253.19;4860469;29;20065;-72
2023/08/23 08:54:20;;;;;;;26.05;7.38;;;;;;;35.43;nan;97253.56;4839043;29;20052;-73
2023/08/23 08:56:50;;;;;;;25.55;6.18;;;;;;;35.53;nan;97256.34;4852815;29;20041;-72
2023/08/23 08:59:20;;;;;;;20.73;6.78;;;;;;;35.44;nan;97249.66;4853671;29;20053;-74
2023/08/23 09:01:50;;;;;;;23.02;6.63;;;;;;;35.33;nan;97246.06;4834131;29;20523;-74
2023/08/23 09:04:20;;;;;;;21.05;6.15;;;;;;;35.18;nan;97248.03;4860879;29;20164;-75
2023/08/23 09:06:49;;;;;;;22.67;5.55;;;;;;;35.06;nan;97242.81;4847413;29;20081;-74
2023/08/23 09:09:20;;;;;;;23.33;6.05;;;;;;;35.07;nan;97230.63;4829463;29;20140;-73
2023/08/23 09:11:50;;;;;;;23.58;6.10;;;;;;;35.12;nan;97235.78;4848637;29;20057;-73
2023/08/23 09:14:21;;;;;;;30.20;6.50;;;;;;;35.00;nan;97230.63;4836892;29;20081;-76
2023/08/23 09:16:51;;;;;;;18.20;6.18;;;;;;;35.01;nan;97229.44;4847899;29;20423;-74
2023/08/23 09:19:23;;;;;;;21.85;5.97;;;;;;;35.08;nan;97226.72;4844982;29;20057;-74
2023/08/23 09:21:55;;;;;;;24.70;6.07;;;;;;;35.06;nan;97232.59;4830064;29;20787;-74
2023/08/23 09:24:24;;;;;;;15.10;4.97;;;;;;;34.89;nan;97238.03;4847163;29;20117;-74
2023/08/23 09:26:55;;;;;;;19.63;5.47;;;;;;;34.95;nan;97223.53;4851045;29;20057;-73
2023/08/23 09:29:25;;;;;;;33.33;6.45;;;;;;;34.87;nan;97226.66;4850488;29;20049;-73
2023/08/23 09:31:57;;;;;;;23.17;5.65;;;;;;;34.80;nan;97230.16;4847845;29;20053;-72
2023/08/23 09:34:28;;;;;;;22.58;6.65;;;;;;;34.82;nan;97229.78;4837509;29;20056;-75
2023/08/23 09:37:08;;;;;;;21.92;5.55;;;;;;;34.80;nan;97226.59;4837909;29;20068;-73
2023/08/23 09:39:38;;;;;;;14.93;5.40;;;;;;;34.82;nan;97222.31;4852663;29;20987;-73
2023/08/23 09:42:08;;;;;;;19.05;4.85;;;;;;;34.72;nan;97231.31;4849102;29;20065;-72
2023/08/23 09:44:41;;;;;;;29.65;5.68;;;;;;;34.65;nan;97232.00;4859433;29;20057;-73
2023/08/23 09:47:21;;;;;;;19.17;5.55;;;;;;;34.82;nan;97227.03;4836106;29;20438;-72
2023/08/23 09:49:51;;;;;;;26.20;5.82;;;;;;;34.77;nan;97230.94;4853204;29;20085;-72
2023/08/23 09:52:30;;;;;;;20.48;5.43;;;;;;;34.75;nan;97219.50;4852455;29;20045;-73
2023/08/23 09:55:14;;;;;;;19.13;6.28;;;;;;;34.68;nan;97219.50;4837372;29;20613;-77
2023/08/23 09:57:43;;;;;;;19.77;5.15;;;;;;;34.70;nan;97220.69;4847436;29;20141;-72
2023/08/23 10:00:16;;;;;;;15.38;5.57;;;;;;;34.70;nan;97215.16;4843917;29;20526;-76
2023/08/23 10:02:49;;;;;;;22.98;5.97;;;;;;;34.56;nan;97228.06;4833119;29;20530;-73
2023/08/23 10:05:20;;;;;;;20.73;5.13;;;;;;;34.44;nan;97214.63;4832002;29;20593;-73
2023/08/23 10:07:56;;;;;;;19.25;5.00;;;;;;;34.31;nan;97210.63;4851631;29;20049;-74
2023/08/23 10:10:26;;;;;;;29.50;6.82;;;;;;;34.36;nan;97216.56;4846311;29;20556;-74
2023/08/23 10:13:00;;;;;;;21.88;4.75;;;;;;;34.34;nan;97213.41;4848163;29;20062;-70
2023/08/23 10:15:32;;;;;;;20.05;5.00;;;;;;;34.27;nan;97216.91;4846368;29;20049;-73
2023/08/23 10:18:06;;;;;;;28.67;5.57;;;;;;;34.26;nan;97209.81;4850630;29;20142;-72
2023/08/23 10:20:37;;;;;;;21.63;5.40;;;;;;;34.18;nan;97204.66;4842811;29;20085;-73
2023/08/23 10:23:18;;;;;;;25.50;5.55;;;;;;;34.18;nan;97207.41;4860402;29;20136;-75
2023/08/23 10:25:48;;;;;;;14.48;5.10;;;;;;;34.21;nan;97209.41;4845487;29;20165;-76
2023/08/23 10:28:18;;;;;;;25.77;6.28;;;;;;;33.91;nan;97204.06;4832713;29;20057;-75
2023/08/23 10:30:52;;;;;;;23.20;5.95;;;;;;;34.14;nan;97204.63;4831951;29;20060;-73
2023/08/23 10:33:30;;;;;;;28.33;5.65;;;;;;;34.00;nan;97206.47;4849179;29;20064;-74
2023/08/23 10:36:00;;;;;;;37.43;6.80;;;;;;;34.02;nan;97198.66;4848219;29;20157;-75
2023/08/23 10:38:30;;;;;;;27.65;5.50;;;;;;;33.87;nan;97194.22;4829944;29;20389;-72
2023/08/23 10:41:02;;;;;;;22.48;5.93;;;;;;;33.68;nan;97204.28;4847110;29;20057;-76
2023/08/23 10:43:32;;;;;;;24.13;6.70;;;;;;;33.65;nan;97199.53;4829107;29;20054;-76
2023/08/23 10:46:09;;;;;;;27.13;7.00;;;;;;;33.64;nan;97199.88;4846362;29;20085;-72
2023/08/23 10:48:39;;;;;;;28.30;6.25;;;;;;;33.55;nan;97202.94;4844434;29;20093;-70
2023/08/23 10:51:10;;;;;;;25.08;5.85;;;;;;;33.47;nan;97203.28;4847833;29;20049;-73
2023/08/23 10:53:43;;;;;;;27.42;6.80;;;;;;;33.40;nan;97196.56;4845151;29;20541;-74
2023/08/23 10:56:12;;;;;;;;;;;;;;;33.29;nan;97189.38;4847532;29;20068;-78
2023/08/23 10:58:45;;;;;;;27.88;6.25;;;;;;;33.24;nan;97176.78;4845784;29;20405;-78
2023/08/23 11:01:14;;;;;;;29.23;6.15;;;;;;;33.25;nan;97183.06;4847072;29;20068;-72
2023/08/23 11:03:43;;;;;;;25.42;6.78;;;;;;;33.17;nan;97184.19;4833579;29;20046;-74
2023/08/23 11:06:13;;;;;;;27.77;6.35;;;;;;;33.11;nan;97180.94;4843880;29;20053;-73
2023/08/23 11:08:44;;;;;;;31.17;7.97;;;;;;;33.05;nan;97182.47;4830004;29;20379;-74
2023/08/23 11:11:13;;;;;;;24.05;5.65;;;;;;;33.00;nan;97184.75;4848035;29;20477;-71
2023/08/23 11:13:43;;;;;;;27.25;6.22;;;;;;;33.11;nan;97188.38;4845868;29;20060;-74
2023/08/23 11:16:12;;;;;;;20.60;6.25;;;;;;;33.08;nan;97186.41;4849597;29;20606;-74
2023/08/23 11:18:42;;;;;;;24.50;6.38;;;;;;;33.15;nan;97183.78;4833265;29;20133;-75
2023/08/23 11:21:12;;;;;;;24.25;5.70;;;;;;;33.15;nan;97189.28;4851657;29;20473;-77
2023/08/23 11:23:42;;;;;;;17.02;5.90;;;;;;;33.12;nan;97190.75;4841035;29;20425;-72
2023/08/23 11:26:11;;;;;;;24.20;7.15;;;;;;;33.01;nan;97194.56;4835551;29;20050;-70
2023/08/23 11:28:40;;;;;;;24.08;4.97;;;;;;;32.88;nan;97189.31;4845659;29;20153;-72
2023/08/23 11:31:10;;;;;;;33.97;6.75;;;;;;;32.92;nan;97192.13;4834995;29;20129;-69
2023/08/23 11:33:40;;;;;;;28.70;7.25;;;;;;;32.91;nan;97194.06;4857627;29;20152;-70
2023/08/23 11:36:09;;;;;;;27.70;5.53;;;;;;;32.98;nan;97193.34;4851380;29;20045;-72
2023/08/23 11:38:40;;;;;;;26.30;6.03;;;;;;;32.86;nan;97199.09;4851435;29;20132;-73
2023/08/23 11:41:09;;;;;;;27.17;6.32;;;;;;;32.73;nan;97201.31;4852139;29;20061;-70
2023/08/23 11:43:44;;;;;;;20.35;5.40;;;;;;;32.55;nan;97197.53;4834090;29;20093;-74
2023/08/23 11:46:18;;;;;;;33.80;6.38;;;;;;;32.50;nan;97200.59;4865147;29;20057;-74
2023/08/23 11:48:48;;;;;;;25.70;5.25;;;;;;;32.50;nan;97195.09;4869709;29;20049;-71
2023/08/23 11:51:18;;;;;;;27.48;5.80;;;;;;;32.39;nan;97194.19;4858147;29;20084;-68
2023/08/23 11:53:54;;;;;;;31.02;6.60;;;;;;;32.36;nan;97206.69;4864071;29;20049;-69
2023/08/23 11:56:27;;;;;;;24.05;5.53;;;;;;;32.36;nan;97205.88;4850616;29;20128;-71
2023/08/23 11:58:57;;;;;;;27.75;5.10;;;;;;;32.34;nan;97210.97;4848624;29;20592;-71
2023/08/23 12:01:27;;;;;;;42.55;7.47;;;;;;;32.31;nan;97208.97;4836067;29;20136;-70